This is the latest recevied weather packets stored in our database for station/object OH2HCY-3. If no packets are shown the sender has not sent any weather packets the latest 10 day(s).
| Time | Temp. | Humidity | Pressure | Rain* | Wind** | Luminosity | Snow |
|---|---|---|---|---|---|---|---|
| 1777754350 | 6.11° C | 78% | 1008.4 hPa | - | - | - | - |
| 1777753326 | 6.11° C | 77% | 1008.6 hPa | - | - | - | - |
| 1777752303 | 6.67° C | 76% | - | - | - | - | - |
| 1777752300 | 6.67° C | 76% | 1008.7 hPa | - | - | - | - |
| 1777751337 | 6.67° C | 76% | 1008.8 hPa | - | - | - | - |
| 1777750225 | 6.67° C | 76% | 1008.9 hPa | - | - | - | - |
| 1777749110 | 6.67° C | 74% | 1009.1 hPa | - | - | - | - |
| 1777748069 | 7.22° C | 71% | 1009.2 hPa | - | - | - | - |
| 1777746990 | 8.33° C | 68% | 1009.3 hPa | - | - | - | - |
| 1777745984 | 8.33° C | 67% | 1009.5 hPa | - | - | - | - |
| 1777744977 | 8.89° C | 65% | 1009.4 hPa | - | - | - | - |
| 1777743952 | 8.89° C | 65% | 1009.4 hPa | - | - | - | - |
| 1777743950 | 8.89° C | 65% | 1009.4 hPa | - | - | - | - |
| 1777742856 | 9.44° C | 64% | 1009.6 hPa | - | - | - | - |
| 1777741696 | 9.44° C | 63% | 1009.7 hPa | - | - | - | - |
| 1777740650 | 10° C | 62% | 1009.8 hPa | - | - | - | - |
| 1777739456 | 10.56° C | 58% | 1009.9 hPa | - | - | - | - |
| 1777738340 | 12.78° C | 51% | 1010 hPa | - | - | - | - |
| 1777737140 | 13.33° C | 51% | 1010.2 hPa | - | - | - | - |
| 1777735960 | 12.78° C | 53% | 1010.3 hPa | - | - | - | - |
| 1777734780 | 12.78° C | 52% | 1010.5 hPa | - | - | - | - |
| 1777733585 | 12.22° C | 53% | 1010.5 hPa | - | - | - | - |
| 1777732620 | 12.78° C | 52% | 1010.5 hPa | - | - | - | - |
| 1777732615 | 12.78° C | 52% | 1010.5 hPa | - | - | - | - |
| 1777731535 | 13.33° C | 49% | 1010.5 hPa | - | - | - | - |
* Rain since midnight (hover to see other rain measurements)
** Current wind speed in m/s (hover to see current wind gust speed)